aviador You're here:

KBDR Decoded Metar

STRATFORD in CT, USA
Report Time2018-07-20 17:52:00
UTC Time2018-07-20 18:29:14
Flight Rules vfr VFR
Wind150° at 10 kt
W.Decomp.*RWY 11: 6.0 kt HW 8.0 kt RCW
RWY 24: 2.2 kt HW 9.7 kt LCW
W.Rank150° ranks 34
Current wind is above 150° avg. (6.8)
Visibility9999 m
Phenomena:N/A
Clouds:N/A
Expected CloudBase > 3,200 ft AGL from Temp-Dew spread
CeilingNone
Temp26°C (ISA +11)
Dew Point18°C (61% RH)
AAT25.1°C
QNH1021 hPa
Density Alt1,306 ft
Elevation23 ft
Report Wrong Elevation
Raw Report
KBDR 201752Z 15010KT 10SM CLR 26/18 A3016 RMK AO2 SLP214 T02560178
10267 20211 58005=

Extra information for KBDR:More info

Metar Taf Metar & Taf Last 4 Metars F.Rules Stats Wind Profile Meteogram Temp Stats Airport Information Weather charts Add Link Nearby VenuesMetar ALERT Operation Metar Decoded Social comments

AIRNAV info for KBDR